sensor_id;sensor_type;location;lat;lon;timestamp;P1;durP1;ratioP1;P2;durP2;ratioP2
5774;SDS011;2913;51.120;6.772;2024-01-25T00:01:13;59.28;;;6.40;;
5774;SDS011;2913;51.120;6.772;2024-01-25T00:03:39;54.95;;;5.88;;
5774;SDS011;2913;51.120;6.772;2024-01-25T00:06:07;54.20;;;8.43;;
5774;SDS011;2913;51.120;6.772;2024-01-25T00:08:33;56.72;;;5.55;;
5774;SDS011;2913;51.120;6.772;2024-01-25T00:10:59;48.42;;;6.07;;
5774;SDS011;2913;51.120;6.772;2024-01-25T00:13:26;41.85;;;4.60;;
5774;SDS011;2913;51.120;6.772;2024-01-25T00:15:52;65.57;;;6.03;;
5774;SDS011;2913;51.120;6.772;2024-01-25T00:18:17;68.82;;;7.60;;
5774;SDS011;2913;51.120;6.772;2024-01-25T00:20:43;58.58;;;5.95;;
5774;SDS011;2913;51.120;6.772;2024-01-25T00:23:09;57.10;;;6.05;;
5774;SDS011;2913;51.120;6.772;2024-01-25T00:25:36;65.25;;;5.30;;
5774;SDS011;2913;51.120;6.772;2024-01-25T00:28:02;60.17;;;6.05;;
5774;SDS011;2913;51.120;6.772;2024-01-25T00:30:28;49.00;;;5.35;;
5774;SDS011;2913;51.120;6.772;2024-01-25T00:32:56;61.17;;;6.00;;
5774;SDS011;2913;51.120;6.772;2024-01-25T00:35:22;63.42;;;7.68;;
5774;SDS011;2913;51.120;6.772;2024-01-25T00:37:54;58.17;;;6.53;;
5774;SDS011;2913;51.120;6.772;2024-01-25T00:40:24;59.20;;;5.65;;
5774;SDS011;2913;51.120;6.772;2024-01-25T00:42:56;60.45;;;6.13;;
5774;SDS011;2913;51.120;6.772;2024-01-25T00:45:23;50.65;;;5.25;;
5774;SDS011;2913;51.120;6.772;2024-01-25T00:47:49;62.25;;;6.57;;
5774;SDS011;2913;51.120;6.772;2024-01-25T00:50:18;51.90;;;5.75;;
5774;SDS011;2913;51.120;6.772;2024-01-25T00:52:48;67.22;;;7.18;;
5774;SDS011;2913;51.120;6.772;2024-01-25T00:55:14;51.63;;;6.10;;
5774;SDS011;2913;51.120;6.772;2024-01-25T00:57:40;63.83;;;7.28;;
5774;SDS011;2913;51.120;6.772;2024-01-25T01:00:06;77.85;;;6.00;;
5774;SDS011;2913;51.120;6.772;2024-01-25T01:02:39;61.60;;;5.18;;
5774;SDS011;2913;51.120;6.772;2024-01-25T01:05:07;62.08;;;7.03;;
5774;SDS011;2913;51.120;6.772;2024-01-25T01:07:34;56.78;;;6.53;;
5774;SDS011;2913;51.120;6.772;2024-01-25T01:09:59;51.83;;;5.35;;
5774;SDS011;2913;51.120;6.772;2024-01-25T01:12:28;71.85;;;6.45;;
5774;SDS011;2913;51.120;6.772;2024-01-25T01:14:55;69.18;;;6.95;;
5774;SDS011;2913;51.120;6.772;2024-01-25T01:17:20;66.38;;;6.93;;
5774;SDS011;2913;51.120;6.772;2024-01-25T01:19:46;57.38;;;6.80;;
5774;SDS011;2913;51.120;6.772;2024-01-25T01:22:12;68.15;;;7.35;;
5774;SDS011;2913;51.120;6.772;2024-01-25T01:24:38;74.68;;;6.78;;
5774;SDS011;2913;51.120;6.772;2024-01-25T01:27:05;60.30;;;6.28;;
5774;SDS011;2913;51.120;6.772;2024-01-25T01:29:31;47.63;;;5.47;;
5774;SDS011;2913;51.120;6.772;2024-01-25T01:31:59;61.80;;;5.65;;
5774;SDS011;2913;51.120;6.772;2024-01-25T01:34:24;69.20;;;8.10;;
5774;SDS011;2913;51.120;6.772;2024-01-25T01:36:50;55.55;;;6.00;;
5774;SDS011;2913;51.120;6.772;2024-01-25T01:39:18;63.17;;;7.35;;
5774;SDS011;2913;51.120;6.772;2024-01-25T01:41:46;44.72;;;5.82;;
5774;SDS011;2913;51.120;6.772;2024-01-25T01:44:13;53.67;;;6.07;;
5774;SDS011;2913;51.120;6.772;2024-01-25T01:46:39;49.90;;;5.68;;
5774;SDS011;2913;51.120;6.772;2024-01-25T01:49:05;61.60;;;6.40;;
5774;SDS011;2913;51.120;6.772;2024-01-25T01:51:34;53.33;;;6.38;;
5774;SDS011;2913;51.120;6.772;2024-01-25T01:54:03;62.78;;;7.68;;
5774;SDS011;2913;51.120;6.772;2024-01-25T01:56:31;48.78;;;7.47;;
5774;SDS011;2913;51.120;6.772;2024-01-25T01:58:58;66.90;;;6.07;;
5774;SDS011;2913;51.120;6.772;2024-01-25T02:01:25;55.17;;;6.65;;
5774;SDS011;2913;51.120;6.772;2024-01-25T02:03:54;74.45;;;6.80;;
5774;SDS011;2913;51.120;6.772;2024-01-25T02:06:23;46.22;;;6.20;;
5774;SDS011;2913;51.120;6.772;2024-01-25T02:08:49;70.55;;;6.10;;
5774;SDS011;2913;51.120;6.772;2024-01-25T02:11:21;63.35;;;6.35;;
5774;SDS011;2913;51.120;6.772;2024-01-25T02:13:49;50.28;;;5.55;;
5774;SDS011;2913;51.120;6.772;2024-01-25T02:16:14;62.00;;;6.60;;
5774;SDS011;2913;51.120;6.772;2024-01-25T02:18:41;54.13;;;5.68;;
5774;SDS011;2913;51.120;6.772;2024-01-25T02:21:07;48.78;;;6.00;;
5774;SDS011;2913;51.120;6.772;2024-01-25T02:23:35;50.40;;;5.32;;
5774;SDS011;2913;51.120;6.772;2024-01-25T02:26:00;68.35;;;6.43;;
5774;SDS011;2913;51.120;6.772;2024-01-25T02:28:26;63.63;;;6.50;;
5774;SDS011;2913;51.120;6.772;2024-01-25T02:30:54;53.97;;;5.68;;
5774;SDS011;2913;51.120;6.772;2024-01-25T02:33:23;59.15;;;5.85;;
5774;SDS011;2913;51.120;6.772;2024-01-25T02:35:49;56.30;;;5.38;;
5774;SDS011;2913;51.120;6.772;2024-01-25T02:38:14;72.95;;;7.63;;
5774;SDS011;2913;51.120;6.772;2024-01-25T02:40:40;58.35;;;7.13;;
5774;SDS011;2913;51.120;6.772;2024-01-25T02:43:08;67.00;;;6.75;;
5774;SDS011;2913;51.120;6.772;2024-01-25T02:45:34;64.30;;;6.53;;
5774;SDS011;2913;51.120;6.772;2024-01-25T02:47:59;55.42;;;6.53;;
5774;SDS011;2913;51.120;6.772;2024-01-25T02:50:27;77.35;;;6.50;;
5774;SDS011;2913;51.120;6.772;2024-01-25T02:52:52;51.22;;;6.20;;
5774;SDS011;2913;51.120;6.772;2024-01-25T02:55:21;70.97;;;8.98;;
5774;SDS011;2913;51.120;6.772;2024-01-25T02:57:53;65.03;;;5.75;;
5774;SDS011;2913;51.120;6.772;2024-01-25T03:00:21;62.10;;;6.30;;
5774;SDS011;2913;51.120;6.772;2024-01-25T03:02:47;76.65;;;8.13;;
5774;SDS011;2913;51.120;6.772;2024-01-25T03:05:12;53.35;;;6.05;;
5774;SDS011;2913;51.120;6.772;2024-01-25T03:07:40;62.60;;;6.32;;
5774;SDS011;2913;51.120;6.772;2024-01-25T03:10:08;60.65;;;6.43;;
5774;SDS011;2913;51.120;6.772;2024-01-25T03:12:34;72.22;;;6.35;;
5774;SDS011;2913;51.120;6.772;2024-01-25T03:15:02;73.43;;;8.02;;
5774;SDS011;2913;51.120;6.772;2024-01-25T03:17:28;57.78;;;6.30;;
5774;SDS011;2913;51.120;6.772;2024-01-25T03:19:53;63.97;;;6.30;;
5774;SDS011;2913;51.120;6.772;2024-01-25T03:22:19;68.97;;;6.20;;
5774;SDS011;2913;51.120;6.772;2024-01-25T03:24:45;54.45;;;5.40;;
5774;SDS011;2913;51.120;6.772;2024-01-25T03:27:12;67.97;;;6.68;;
5774;SDS011;2913;51.120;6.772;2024-01-25T03:29:42;61.15;;;6.90;;
5774;SDS011;2913;51.120;6.772;2024-01-25T03:32:09;57.80;;;5.63;;
5774;SDS011;2913;51.120;6.772;2024-01-25T03:34:37;58.63;;;6.00;;
5774;SDS011;2913;51.120;6.772;2024-01-25T03:37:03;81.95;;;7.50;;
5774;SDS011;2913;51.120;6.772;2024-01-25T03:39:31;57.03;;;6.13;;
5774;SDS011;2913;51.120;6.772;2024-01-25T03:41:57;51.35;;;5.35;;
5774;SDS011;2913;51.120;6.772;2024-01-25T03:44:24;53.95;;;7.28;;
5774;SDS011;2913;51.120;6.772;2024-01-25T03:46:50;67.80;;;6.28;;
5774;SDS011;2913;51.120;6.772;2024-01-25T03:49:18;71.00;;;6.40;;
5774;SDS011;2913;51.120;6.772;2024-01-25T03:51:47;71.27;;;7.87;;
5774;SDS011;2913;51.120;6.772;2024-01-25T03:54:16;69.13;;;6.55;;
5774;SDS011;2913;51.120;6.772;2024-01-25T03:56:42;69.78;;;5.88;;
5774;SDS011;2913;51.120;6.772;2024-01-25T03:59:10;72.75;;;7.65;;
5774;SDS011;2913;51.120;6.772;2024-01-25T04:01:44;71.57;;;7.28;;
5774;SDS011;2913;51.120;6.772;2024-01-25T04:04:12;67.07;;;7.78;;
5774;SDS011;2913;51.120;6.772;2024-01-25T04:06:43;48.03;;;5.25;;
5774;SDS011;2913;51.120;6.772;2024-01-25T04:09:12;69.82;;;6.57;;
5774;SDS011;2913;51.120;6.772;2024-01-25T04:11:40;63.97;;;6.38;;
5774;SDS011;2913;51.120;6.772;2024-01-25T04:14:06;60.35;;;7.00;;
5774;SDS011;2913;51.120;6.772;2024-01-25T04:16:32;58.90;;;6.63;;
5774;SDS011;2913;51.120;6.772;2024-01-25T04:18:58;82.75;;;6.90;;
5774;SDS011;2913;51.120;6.772;2024-01-25T04:21:24;77.63;;;7.22;;
5774;SDS011;2913;51.120;6.772;2024-01-25T04:23:50;66.10;;;6.35;;
5774;SDS011;2913;51.120;6.772;2024-01-25T04:26:17;70.10;;;7.82;;
5774;SDS011;2913;51.120;6.772;2024-01-25T04:28:43;63.40;;;7.65;;
5774;SDS011;2913;51.120;6.772;2024-01-25T04:31:09;88.18;;;6.72;;
5774;SDS011;2913;51.120;6.772;2024-01-25T04:33:34;84.47;;;7.35;;
5774;SDS011;2913;51.120;6.772;2024-01-25T04:36:03;66.03;;;7.57;;
5774;SDS011;2913;51.120;6.772;2024-01-25T04:38:34;77.22;;;6.88;;
5774;SDS011;2913;51.120;6.772;2024-01-25T04:40:59;69.13;;;7.38;;
5774;SDS011;2913;51.120;6.772;2024-01-25T04:43:33;71.40;;;7.00;;
5774;SDS011;2913;51.120;6.772;2024-01-25T04:46:02;69.00;;;7.57;;
5774;SDS011;2913;51.120;6.772;2024-01-25T04:48:29;69.53;;;6.68;;
5774;SDS011;2913;51.120;6.772;2024-01-25T04:50:56;63.03;;;6.47;;
5774;SDS011;2913;51.120;6.772;2024-01-25T04:53:23;74.40;;;7.22;;
5774;SDS011;2913;51.120;6.772;2024-01-25T04:55:51;66.15;;;6.82;;
5774;SDS011;2913;51.120;6.772;2024-01-25T04:58:18;56.72;;;8.02;;
5774;SDS011;2913;51.120;6.772;2024-01-25T05:00:48;90.90;;;7.38;;
5774;SDS011;2913;51.120;6.772;2024-01-25T05:03:17;50.40;;;6.70;;
5774;SDS011;2913;51.120;6.772;2024-01-25T05:05:43;92.40;;;7.32;;
5774;SDS011;2913;51.120;6.772;2024-01-25T05:08:11;87.68;;;7.78;;
5774;SDS011;2913;51.120;6.772;2024-01-25T05:10:36;78.22;;;7.50;;
5774;SDS011;2913;51.120;6.772;2024-01-25T05:13:07;62.80;;;6.90;;
5774;SDS011;2913;51.120;6.772;2024-01-25T05:15:34;74.55;;;7.22;;
5774;SDS011;2913;51.120;6.772;2024-01-25T05:18:04;58.88;;;6.03;;
5774;SDS011;2913;51.120;6.772;2024-01-25T05:20:33;85.28;;;6.72;;
5774;SDS011;2913;51.120;6.772;2024-01-25T05:23:01;71.25;;;8.35;;
5774;SDS011;2913;51.120;6.772;2024-01-25T05:25:28;68.03;;;6.20;;
5774;SDS011;2913;51.120;6.772;2024-01-25T05:27:54;71.22;;;6.85;;
5774;SDS011;2913;51.120;6.772;2024-01-25T05:30:24;63.70;;;6.82;;
5774;SDS011;2913;51.120;6.772;2024-01-25T05:32:50;63.80;;;6.18;;
5774;SDS011;2913;51.120;6.772;2024-01-25T05:35:19;63.33;;;6.28;;
5774;SDS011;2913;51.120;6.772;2024-01-25T05:37:45;53.47;;;6.28;;
5774;SDS011;2913;51.120;6.772;2024-01-25T05:40:13;63.33;;;6.30;;
5774;SDS011;2913;51.120;6.772;2024-01-25T05:42:41;71.10;;;6.35;;
5774;SDS011;2913;51.120;6.772;2024-01-25T05:45:06;78.95;;;7.30;;
5774;SDS011;2913;51.120;6.772;2024-01-25T05:47:34;68.78;;;7.20;;
5774;SDS011;2913;51.120;6.772;2024-01-25T05:50:04;55.80;;;5.90;;
5774;SDS011;2913;51.120;6.772;2024-01-25T05:52:30;57.95;;;6.45;;
5774;SDS011;2913;51.120;6.772;2024-01-25T05:54:56;66.30;;;6.72;;
5774;SDS011;2913;51.120;6.772;2024-01-25T05:57:22;57.78;;;6.55;;
5774;SDS011;2913;51.120;6.772;2024-01-25T05:59:47;74.53;;;6.07;;
5774;SDS011;2913;51.120;6.772;2024-01-25T06:02:13;79.55;;;7.75;;
5774;SDS011;2913;51.120;6.772;2024-01-25T06:04:39;62.95;;;6.90;;
5774;SDS011;2913;51.120;6.772;2024-01-25T06:07:04;67.90;;;6.32;;
5774;SDS011;2913;51.120;6.772;2024-01-25T06:09:30;81.13;;;6.90;;
5774;SDS011;2913;51.120;6.772;2024-01-25T06:11:58;48.78;;;6.53;;
5774;SDS011;2913;51.120;6.772;2024-01-25T06:14:24;56.97;;;6.57;;
5774;SDS011;2913;51.120;6.772;2024-01-25T06:16:49;76.20;;;7.65;;
5774;SDS011;2913;51.120;6.772;2024-01-25T06:19:15;66.70;;;7.82;;
5774;SDS011;2913;51.120;6.772;2024-01-25T06:21:40;63.13;;;6.28;;
5774;SDS011;2913;51.120;6.772;2024-01-25T06:24:06;63.50;;;7.00;;
5774;SDS011;2913;51.120;6.772;2024-01-25T06:26:32;61.80;;;7.35;;
5774;SDS011;2913;51.120;6.772;2024-01-25T06:29:00;80.13;;;7.20;;
5774;SDS011;2913;51.120;6.772;2024-01-25T06:31:26;89.40;;;8.38;;
5774;SDS011;2913;51.120;6.772;2024-01-25T06:33:56;65.80;;;6.05;;
5774;SDS011;2913;51.120;6.772;2024-01-25T06:36:22;52.20;;;6.72;;
5774;SDS011;2913;51.120;6.772;2024-01-25T06:38:48;66.30;;;7.32;;
5774;SDS011;2913;51.120;6.772;2024-01-25T06:41:13;72.70;;;7.55;;
5774;SDS011;2913;51.120;6.772;2024-01-25T06:43:41;63.28;;;6.43;;
5774;SDS011;2913;51.120;6.772;2024-01-25T06:46:07;97.60;;;7.47;;
5774;SDS011;2913;51.120;6.772;2024-01-25T06:48:32;44.25;;;6.63;;
5774;SDS011;2913;51.120;6.772;2024-01-25T06:51:01;76.60;;;7.10;;
5774;SDS011;2913;51.120;6.772;2024-01-25T06:53:28;90.55;;;7.97;;
5774;SDS011;2913;51.120;6.772;2024-01-25T06:55:54;77.63;;;7.97;;
5774;SDS011;2913;51.120;6.772;2024-01-25T06:58:20;75.63;;;9.07;;
5774;SDS011;2913;51.120;6.772;2024-01-25T07:00:45;87.20;;;8.27;;
5774;SDS011;2913;51.120;6.772;2024-01-25T07:03:14;46.25;;;7.00;;
5774;SDS011;2913;51.120;6.772;2024-01-25T07:05:40;60.78;;;6.20;;
5774;SDS011;2913;51.120;6.772;2024-01-25T07:08:06;50.70;;;5.85;;
5774;SDS011;2913;51.120;6.772;2024-01-25T07:10:34;57.25;;;6.28;;
5774;SDS011;2913;51.120;6.772;2024-01-25T07:12:59;92.32;;;9.77;;
5774;SDS011;2913;51.120;6.772;2024-01-25T07:15:25;64.68;;;6.82;;
5774;SDS011;2913;51.120;6.772;2024-01-25T07:17:51;65.75;;;7.70;;
5774;SDS011;2913;51.120;6.772;2024-01-25T07:20:16;86.80;;;7.07;;
5774;SDS011;2913;51.120;6.772;2024-01-25T07:22:42;67.57;;;8.60;;
5774;SDS011;2913;51.120;6.772;2024-01-25T07:25:08;53.33;;;7.53;;
5774;SDS011;2913;51.120;6.772;2024-01-25T07:27:33;63.15;;;7.53;;
5774;SDS011;2913;51.120;6.772;2024-01-25T07:30:01;91.95;;;10.60;;
5774;SDS011;2913;51.120;6.772;2024-01-25T07:32:30;60.97;;;8.38;;
5774;SDS011;2913;51.120;6.772;2024-01-25T07:34:57;73.50;;;7.82;;
5774;SDS011;2913;51.120;6.772;2024-01-25T07:37:23;82.68;;;9.80;;
5774;SDS011;2913;51.120;6.772;2024-01-25T07:39:49;84.38;;;9.13;;
5774;SDS011;2913;51.120;6.772;2024-01-25T07:42:19;63.17;;;8.75;;
5774;SDS011;2913;51.120;6.772;2024-01-25T07:44:44;53.42;;;7.57;;
5774;SDS011;2913;51.120;6.772;2024-01-25T07:47:10;85.80;;;9.38;;
5774;SDS011;2913;51.120;6.772;2024-01-25T07:49:39;66.10;;;7.95;;
5774;SDS011;2913;51.120;6.772;2024-01-25T07:52:05;93.07;;;10.90;;
5774;SDS011;2913;51.120;6.772;2024-01-25T07:54:31;61.72;;;7.63;;
5774;SDS011;2913;51.120;6.772;2024-01-25T07:56:57;67.65;;;9.00;;
5774;SDS011;2913;51.120;6.772;2024-01-25T07:59:23;77.85;;;10.20;;
5774;SDS011;2913;51.120;6.772;2024-01-25T08:01:50;102.45;;;9.45;;
5774;SDS011;2913;51.120;6.772;2024-01-25T08:04:18;62.92;;;8.05;;
5774;SDS011;2913;51.120;6.772;2024-01-25T08:06:44;65.47;;;8.27;;
5774;SDS011;2913;51.120;6.772;2024-01-25T08:09:12;68.55;;;8.18;;
5774;SDS011;2913;51.120;6.772;2024-01-25T08:11:40;71.88;;;7.60;;
5774;SDS011;2913;51.120;6.772;2024-01-25T08:14:06;79.15;;;8.55;;
5774;SDS011;2913;51.120;6.772;2024-01-25T08:16:34;64.05;;;8.63;;
5774;SDS011;2913;51.120;6.772;2024-01-25T08:19:02;72.70;;;8.63;;
5774;SDS011;2913;51.120;6.772;2024-01-25T08:21:28;65.10;;;8.50;;
5774;SDS011;2913;51.120;6.772;2024-01-25T08:23:55;86.07;;;8.60;;
5774;SDS011;2913;51.120;6.772;2024-01-25T08:26:21;78.07;;;8.30;;
5774;SDS011;2913;51.120;6.772;2024-01-25T08:28:47;84.18;;;8.50;;
5774;SDS011;2913;51.120;6.772;2024-01-25T08:31:13;70.07;;;9.50;;
5774;SDS011;2913;51.120;6.772;2024-01-25T08:33:39;78.53;;;9.13;;
5774;SDS011;2913;51.120;6.772;2024-01-25T08:36:09;83.82;;;9.00;;
5774;SDS011;2913;51.120;6.772;2024-01-25T08:38:35;68.72;;;9.80;;
5774;SDS011;2913;51.120;6.772;2024-01-25T08:41:01;62.35;;;7.60;;
5774;SDS011;2913;51.120;6.772;2024-01-25T08:43:29;64.30;;;8.95;;
5774;SDS011;2913;51.120;6.772;2024-01-25T08:45:56;85.38;;;9.55;;
5774;SDS011;2913;51.120;6.772;2024-01-25T08:48:24;74.22;;;10.77;;
5774;SDS011;2913;51.120;6.772;2024-01-25T08:50:50;67.38;;;8.75;;
5774;SDS011;2913;51.120;6.772;2024-01-25T08:53:18;80.65;;;9.10;;
5774;SDS011;2913;51.120;6.772;2024-01-25T08:55:51;89.25;;;10.25;;
5774;SDS011;2913;51.120;6.772;2024-01-25T08:58:20;78.07;;;9.45;;
5774;SDS011;2913;51.120;6.772;2024-01-25T09:00:46;99.55;;;10.23;;
5774;SDS011;2913;51.120;6.772;2024-01-25T09:03:11;75.07;;;10.27;;
5774;SDS011;2913;51.120;6.772;2024-01-25T09:05:37;82.32;;;13.57;;
5774;SDS011;2913;51.120;6.772;2024-01-25T09:08:09;74.65;;;11.88;;
5774;SDS011;2913;51.120;6.772;2024-01-25T09:10:39;83.13;;;11.65;;
5774;SDS011;2913;51.120;6.772;2024-01-25T09:13:06;105.15;;;11.27;;
5774;SDS011;2913;51.120;6.772;2024-01-25T09:15:31;85.32;;;11.57;;
5774;SDS011;2913;51.120;6.772;2024-01-25T09:17:57;94.22;;;12.25;;
5774;SDS011;2913;51.120;6.772;2024-01-25T09:20:23;82.07;;;13.90;;
5774;SDS011;2913;51.120;6.772;2024-01-25T09:22:48;92.57;;;13.68;;
5774;SDS011;2913;51.120;6.772;2024-01-25T09:25:18;81.18;;;12.65;;
5774;SDS011;2913;51.120;6.772;2024-01-25T09:27:48;74.60;;;12.35;;
5774;SDS011;2913;51.120;6.772;2024-01-25T09:30:13;91.28;;;13.38;;
5774;SDS011;2913;51.120;6.772;2024-01-25T09:32:40;85.07;;;11.90;;
5774;SDS011;2913;51.120;6.772;2024-01-25T09:35:05;95.68;;;13.77;;
5774;SDS011;2913;51.120;6.772;2024-01-25T09:37:34;110.60;;;14.90;;
5774;SDS011;2913;51.120;6.772;2024-01-25T09:40:00;116.40;;;15.27;;
5774;SDS011;2913;51.120;6.772;2024-01-25T09:42:25;108.97;;;14.23;;
5774;SDS011;2913;51.120;6.772;2024-01-25T09:44:52;119.68;;;16.33;;
5774;SDS011;2913;51.120;6.772;2024-01-25T09:47:19;99.45;;;14.55;;
5774;SDS011;2913;51.120;6.772;2024-01-25T09:49:46;105.95;;;15.18;;
5774;SDS011;2913;51.120;6.772;2024-01-25T09:52:14;115.85;;;15.68;;
5774;SDS011;2913;51.120;6.772;2024-01-25T09:54:44;134.10;;;19.45;;
5774;SDS011;2913;51.120;6.772;2024-01-25T09:57:13;128.75;;;15.93;;
5774;SDS011;2913;51.120;6.772;2024-01-25T09:59:44;92.93;;;14.65;;
5774;SDS011;2913;51.120;6.772;2024-01-25T10:02:10;112.30;;;15.80;;
5774;SDS011;2913;51.120;6.772;2024-01-25T10:04:38;94.63;;;15.30;;
5774;SDS011;2913;51.120;6.772;2024-01-25T10:07:04;111.10;;;15.50;;
5774;SDS011;2913;51.120;6.772;2024-01-25T10:09:40;111.93;;;13.90;;
5774;SDS011;2913;51.120;6.772;2024-01-25T10:12:06;112.88;;;13.55;;
5774;SDS011;2913;51.120;6.772;2024-01-25T10:14:32;85.75;;;12.35;;
5774;SDS011;2913;51.120;6.772;2024-01-25T10:17:00;103.72;;;11.68;;
5774;SDS011;2913;51.120;6.772;2024-01-25T10:19:26;118.28;;;12.77;;
5774;SDS011;2913;51.120;6.772;2024-01-25T10:21:51;93.95;;;13.10;;
5774;SDS011;2913;51.120;6.772;2024-01-25T10:24:17;109.15;;;13.00;;
5774;SDS011;2913;51.120;6.772;2024-01-25T10:26:47;95.65;;;12.60;;
5774;SDS011;2913;51.120;6.772;2024-01-25T10:29:17;107.47;;;12.85;;
5774;SDS011;2913;51.120;6.772;2024-01-25T10:31:42;93.38;;;12.43;;
5774;SDS011;2913;51.120;6.772;2024-01-25T10:34:13;103.10;;;15.23;;
5774;SDS011;2913;51.120;6.772;2024-01-25T10:36:40;103.20;;;16.30;;
5774;SDS011;2913;51.120;6.772;2024-01-25T10:39:06;96.97;;;17.38;;
5774;SDS011;2913;51.120;6.772;2024-01-25T10:41:36;96.45;;;16.02;;
5774;SDS011;2913;51.120;6.772;2024-01-25T10:44:02;129.05;;;16.67;;
5774;SDS011;2913;51.120;6.772;2024-01-25T10:46:31;119.63;;;19.35;;
5774;SDS011;2913;51.120;6.772;2024-01-25T10:48:57;121.72;;;19.45;;
5774;SDS011;2913;51.120;6.772;2024-01-25T10:51:26;137.70;;;22.38;;
5774;SDS011;2913;51.120;6.772;2024-01-25T10:53:55;101.95;;;20.20;;
5774;SDS011;2913;51.120;6.772;2024-01-25T10:56:23;113.97;;;21.75;;
5774;SDS011;2913;51.120;6.772;2024-01-25T10:58:53;137.77;;;25.33;;
5774;SDS011;2913;51.120;6.772;2024-01-25T11:01:19;146.32;;;23.85;;
5774;SDS011;2913;51.120;6.772;2024-01-25T11:03:45;131.50;;;23.75;;
5774;SDS011;2913;51.120;6.772;2024-01-25T11:06:13;143.82;;;22.73;;
5774;SDS011;2913;51.120;6.772;2024-01-25T11:08:42;145.60;;;25.80;;
5774;SDS011;2913;51.120;6.772;2024-01-25T11:11:09;133.32;;;24.10;;
5774;SDS011;2913;51.120;6.772;2024-01-25T11:13:39;150.95;;;25.05;;
5774;SDS011;2913;51.120;6.772;2024-01-25T11:18:54;180.38;;;28.23;;
5774;SDS011;2913;51.120;6.772;2024-01-25T11:24:04;138.75;;;24.33;;
5774;SDS011;2913;51.120;6.772;2024-01-25T11:26:34;141.82;;;23.73;;
5774;SDS011;2913;51.120;6.772;2024-01-25T11:28:59;160.88;;;23.27;;
5774;SDS011;2913;51.120;6.772;2024-01-25T11:31:26;128.32;;;23.30;;
5774;SDS011;2913;51.120;6.772;2024-01-25T11:33:58;174.23;;;24.92;;
5774;SDS011;2913;51.120;6.772;2024-01-25T11:36:24;168.10;;;25.67;;
5774;SDS011;2913;51.120;6.772;2024-01-25T11:38:51;141.45;;;23.08;;
5774;SDS011;2913;51.120;6.772;2024-01-25T11:41:16;172.32;;;25.80;;
5774;SDS011;2913;51.120;6.772;2024-01-25T11:43:42;168.35;;;25.13;;
5774;SDS011;2913;51.120;6.772;2024-01-25T11:46:08;178.40;;;26.75;;
5774;SDS011;2913;51.120;6.772;2024-01-25T11:48:33;155.52;;;23.35;;
5774;SDS011;2913;51.120;6.772;2024-01-25T11:51:03;168.43;;;25.25;;
5774;SDS011;2913;51.120;6.772;2024-01-25T11:53:29;163.65;;;25.80;;
5774;SDS011;2913;51.120;6.772;2024-01-25T11:55:55;139.45;;;22.80;;
5774;SDS011;2913;51.120;6.772;2024-01-25T11:58:26;147.02;;;22.40;;
5774;SDS011;2913;51.120;6.772;2024-01-25T12:00:52;156.85;;;24.58;;
5774;SDS011;2913;51.120;6.772;2024-01-25T12:03:19;156.23;;;24.48;;
5774;SDS011;2913;51.120;6.772;2024-01-25T12:05:45;140.10;;;21.10;;
5774;SDS011;2913;51.120;6.772;2024-01-25T12:08:14;153.90;;;21.08;;
5774;SDS011;2913;51.120;6.772;2024-01-25T12:10:40;129.63;;;20.48;;
5774;SDS011;2913;51.120;6.772;2024-01-25T12:13:06;149.15;;;20.05;;
5774;SDS011;2913;51.120;6.772;2024-01-25T12:15:35;124.95;;;19.70;;
5774;SDS011;2913;51.120;6.772;2024-01-25T12:18:01;117.05;;;18.50;;
5774;SDS011;2913;51.120;6.772;2024-01-25T12:20:27;138.90;;;19.77;;
5774;SDS011;2913;51.120;6.772;2024-01-25T12:22:53;122.32;;;19.48;;
5774;SDS011;2913;51.120;6.772;2024-01-25T12:25:19;122.10;;;19.27;;
5774;SDS011;2913;51.120;6.772;2024-01-25T12:27:45;121.43;;;20.92;;
5774;SDS011;2913;51.120;6.772;2024-01-25T12:30:17;132.48;;;20.75;;
5774;SDS011;2913;51.120;6.772;2024-01-25T12:32:47;151.75;;;21.30;;
5774;SDS011;2913;51.120;6.772;2024-01-25T12:35:14;129.57;;;18.33;;
5774;SDS011;2913;51.120;6.772;2024-01-25T12:37:40;126.00;;;18.45;;
5774;SDS011;2913;51.120;6.772;2024-01-25T12:40:10;136.63;;;20.63;;
5774;SDS011;2913;51.120;6.772;2024-01-25T12:42:38;102.78;;;16.70;;
5774;SDS011;2913;51.120;6.772;2024-01-25T12:45:04;130.63;;;17.38;;
5774;SDS011;2913;51.120;6.772;2024-01-25T12:47:33;148.10;;;18.80;;
5774;SDS011;2913;51.120;6.772;2024-01-25T12:49:58;119.07;;;21.35;;
5774;SDS011;2913;51.120;6.772;2024-01-25T12:52:26;118.10;;;17.48;;
5774;SDS011;2913;51.120;6.772;2024-01-25T12:54:52;137.07;;;21.23;;
5774;SDS011;2913;51.120;6.772;2024-01-25T12:57:20;95.75;;;17.42;;
5774;SDS011;2913;51.120;6.772;2024-01-25T12:59:48;111.13;;;17.88;;
5774;SDS011;2913;51.120;6.772;2024-01-25T13:02:17;148.45;;;20.17;;
5774;SDS011;2913;51.120;6.772;2024-01-25T13:04:44;131.07;;;20.00;;
5774;SDS011;2913;51.120;6.772;2024-01-25T13:07:12;116.65;;;16.95;;
5774;SDS011;2913;51.120;6.772;2024-01-25T13:09:40;119.82;;;16.85;;
5774;SDS011;2913;51.120;6.772;2024-01-25T13:12:06;123.15;;;17.67;;
5774;SDS011;2913;51.120;6.772;2024-01-25T13:14:34;127.22;;;16.70;;
5774;SDS011;2913;51.120;6.772;2024-01-25T13:17:00;127.43;;;17.45;;
5774;SDS011;2913;51.120;6.772;2024-01-25T13:19:25;122.72;;;18.40;;
5774;SDS011;2913;51.120;6.772;2024-01-25T13:21:51;127.18;;;17.58;;
5774;SDS011;2913;51.120;6.772;2024-01-25T13:24:24;132.23;;;17.60;;
5774;SDS011;2913;51.120;6.772;2024-01-25T13:26:50;141.63;;;16.58;;
5774;SDS011;2913;51.120;6.772;2024-01-25T13:29:15;122.10;;;18.33;;
5774;SDS011;2913;51.120;6.772;2024-01-25T13:31:43;130.70;;;15.38;;
5774;SDS011;2913;51.120;6.772;2024-01-25T13:34:09;112.43;;;15.55;;
5774;SDS011;2913;51.120;6.772;2024-01-25T13:36:35;101.60;;;14.00;;
5774;SDS011;2913;51.120;6.772;2024-01-25T13:39:00;123.68;;;15.90;;
5774;SDS011;2913;51.120;6.772;2024-01-25T13:41:26;111.10;;;15.30;;
5774;SDS011;2913;51.120;6.772;2024-01-25T13:43:52;114.60;;;15.82;;
5774;SDS011;2913;51.120;6.772;2024-01-25T13:46:18;86.63;;;13.23;;
5774;SDS011;2913;51.120;6.772;2024-01-25T13:48:45;99.50;;;13.43;;
5774;SDS011;2913;51.120;6.772;2024-01-25T13:51:13;104.22;;;12.98;;
5774;SDS011;2913;51.120;6.772;2024-01-25T13:53:39;109.55;;;14.55;;
5774;SDS011;2913;51.120;6.772;2024-01-25T13:56:04;85.88;;;12.55;;
5774;SDS011;2913;51.120;6.772;2024-01-25T13:58:32;124.30;;;15.40;;
5774;SDS011;2913;51.120;6.772;2024-01-25T14:01:00;111.50;;;14.57;;
5774;SDS011;2913;51.120;6.772;2024-01-25T14:03:26;104.20;;;15.95;;
5774;SDS011;2913;51.120;6.772;2024-01-25T14:05:51;124.05;;;14.63;;
5774;SDS011;2913;51.120;6.772;2024-01-25T14:08:24;106.82;;;13.80;;
5774;SDS011;2913;51.120;6.772;2024-01-25T14:10:54;96.28;;;13.82;;
5774;SDS011;2913;51.120;6.772;2024-01-25T14:13:19;95.50;;;14.40;;
5774;SDS011;2913;51.120;6.772;2024-01-25T14:15:48;115.78;;;15.18;;
5774;SDS011;2913;51.120;6.772;2024-01-25T14:18:13;92.75;;;15.75;;
5774;SDS011;2913;51.120;6.772;2024-01-25T14:20:39;102.03;;;15.07;;
5774;SDS011;2913;51.120;6.772;2024-01-25T14:23:05;103.45;;;15.40;;
5774;SDS011;2913;51.120;6.772;2024-01-25T14:25:33;95.32;;;14.50;;
5774;SDS011;2913;51.120;6.772;2024-01-25T14:28:01;99.93;;;13.90;;
5774;SDS011;2913;51.120;6.772;2024-01-25T14:30:26;87.38;;;13.15;;
5774;SDS011;2913;51.120;6.772;2024-01-25T14:32:52;97.28;;;13.55;;
5774;SDS011;2913;51.120;6.772;2024-01-25T14:35:19;95.50;;;14.80;;
5774;SDS011;2913;51.120;6.772;2024-01-25T14:37:45;86.75;;;14.65;;
5774;SDS011;2913;51.120;6.772;2024-01-25T14:40:10;77.82;;;11.70;;
5774;SDS011;2913;51.120;6.772;2024-01-25T14:42:36;101.18;;;12.07;;
5774;SDS011;2913;51.120;6.772;2024-01-25T14:45:03;83.18;;;11.93;;
5774;SDS011;2913;51.120;6.772;2024-01-25T14:47:32;75.70;;;12.30;;
5774;SDS011;2913;51.120;6.772;2024-01-25T14:49:57;82.18;;;12.68;;
5774;SDS011;2913;51.120;6.772;2024-01-25T14:52:23;87.57;;;14.90;;
5774;SDS011;2913;51.120;6.772;2024-01-25T14:54:51;99.38;;;13.13;;
5774;SDS011;2913;51.120;6.772;2024-01-25T14:57:16;94.07;;;13.57;;